Flight Track Log - Related Links

Times and Time Zones

All times are in EST time to prevent confusion due to time zone crossing. See the PDT4226 flight status page for this flight to view local times or setup timezone preferences in your user account.

Time Position Orientation Groundspeed Altitude Reporting Facility
EST Latitude Longitude Course Direction KTS MPH feet Rate Location/Type
Sun 01:42:00 PM 42.0626 -75.9319 173° South  Level Estimated
Sun 01:43:00 PM 42.0140 -75.9160 180° South  Level Estimated
Sun 01:44:00 PM 41.9654 -75.9002 180° South  Level Estimated
Sun 01:45:00 PM 41.9157 -75.9079 187° South  Level FlightAware Approximate
Sun 01:46:00 PM 41.8660 -75.9155 187° South  Level FlightAware Approximate
Sun 01:47:00 PM 41.8163 -75.9232 187° South  Level FlightAware Approximate
Sun 01:48:00 PM 41.7666 -75.9308 187° South  Level FlightAware Approximate
Sun 01:49:00 PM 41.7184 -75.9127 154° Southeast  Level Estimated
Sun 01:50:00 PM 41.6702 -75.8947 160° South  Level Estimated
Sun 01:51:00 PM 41.6220 -75.8767 159° South  Level Estimated
Sun 01:52:00 PM 41.5768 -75.8482 155° Southeast  Level FlightAware Approximate
Sun 01:53:00 PM 41.5315 -75.8198 155° Southeast  Level FlightAware Approximate
Sun 01:54:00 PM 41.4832 -75.8025 153° Southeast  Level Estimated
Sun 01:55:00 PM 41.4349 -75.7852 161° South  Level Estimated
Sun 01:56:00 PM 41.3893 -75.7576 156° South  Level FlightAware Approximate
Sun 01:57:00 PM 41.3438 -75.7300 156° South  Level FlightAware Approximate
Sun 01:58:00 PM 41.2983 -75.7024 156° South  Level FlightAware Approximate
Sun 01:59:00 PM 41.2497 -75.6864 162° South  Level Estimated
Sun 02:00:00 PM 41.2027 -75.6637 160° South  Level FlightAware Approximate
Sun 02:01:00 PM 41.1556 -75.6412 160° South  Level FlightAware Approximate
Sun 02:02:00 PM 41.1086 -75.6186 160° South  Level FlightAware Approximate
Sun 02:03:00 PM 41.0615 -75.5961 160° South  Level FlightAware Approximate
Sun 02:04:00 PM 41.0145 -75.5736 160° South  Level FlightAware Approximate
Sun 02:05:00 PM 40.9502 -75.5546 163° South  Level Estimated
Sun 02:06:00 PM 40.8879 -75.5266 161° South  Level FlightAware Approximate
Sun 02:06:58 PM 40.7167 -75.4500 187° South 213 245 8,200  Level Philadelphia TRACON
Sun 02:07:00 PM 40.8256 -75.4986 161° South  Level FlightAware Approximate
Sun 02:07:22 PM 40.6833 -75.4500 180° South 193 222 8,200  Level Philadelphia TRACON
Sun 02:08:00 PM 40.7632 -75.4708 161° South  Level FlightAware Approximate
Sun 02:08:16 PM 40.6500 -75.4667 201° Southwest 186 214 8,000  Level Philadelphia TRACON
Sun 02:09:00 PM 40.6987 -75.4539 190° South  Level Estimated
Sun 02:09:16 PM 40.5833 -75.5000 201° Southwest 200 230 7,300  Level Philadelphia TRACON
Sun 02:10:00 PM 40.6338 -75.4690 190° South  Level FlightAware Approximate
Sun 02:10:16 PM 40.5333 -75.4500 143° Southeast 242 278 6,600  Level Philadelphia TRACON
Sun 02:11:00 PM 40.5690 -75.4840 190° South  Level FlightAware Approximate
Sun 02:11:16 PM 40.4833 -75.4167 153° Southeast 237 273 5,900  Level Philadelphia TRACON
Sun 02:12:00 PM 40.5054 -75.4616 187° South  Level Estimated
Sun 02:12:16 PM 40.4167 -75.3667 150° Southeast 235 270 5,200  Level Philadelphia TRACON
Sun 02:13:16 PM 40.3667 -75.3333 153° Southeast 231 266 5,000 -100 Descending Philadelphia TRACON
Sun 02:14:16 PM 40.3167 -75.3000 153° Southeast 224 258 5,000 -100 Level Philadelphia TRACON
Sun 02:15:16 PM 40.2500 -75.2667 159° South 219 252 4,800 -450 Descending Philadelphia TRACON
Sun 02:16:16 PM 40.2000 -75.2333 153° Southeast 217 250 4,100 -400 Descending Philadelphia TRACON
Sun 02:17:16 PM 40.1500 -75.2167 166° South 199 229 4,000 -50 Descending Philadelphia TRACON
Sun 02:18:16 PM 40.0833 -75.2000 169° South 196 226 4,000  Level Philadelphia TRACON
Sun 02:19:16 PM 40.0333 -75.2000 180° South 187 215 4,000  Level Philadelphia TRACON
Sun 02:20:16 PM 39.9833 -75.1833 166° South 180 207 4,000  Level Philadelphia TRACON
Sun 02:21:16 PM 39.9333 -75.1667 166° South 179 206 4,000 -250 Level Philadelphia TRACON
Sun 02:22:16 PM 39.8833 -75.1500 166° South 183 211 3,500 -500 Descending Philadelphia TRACON
Sun 02:23:16 PM 39.8333 -75.1333 166° South 188 216 3,000 -800 Descending Philadelphia TRACON
Sun 02:24:16 PM 39.8000 -75.1667 218° Southwest 160 184 1,900 -1,000 Descending Philadelphia TRACON
Sun 02:25:16 PM 39.8333 -75.2167 311° West 152 175 1,000 -850 Descending Philadelphia TRACON
Sun 02:26:16 PM 39.8667 -75.2333 339° North 119 137 200 -800 Descending Philadelphia TRACON

Login

Don't have an account? Register now (free) for customized features, flight alerts, and more!